<?xml version="1.0" encoding="UTF-8" standalone="no" ?>
<gpx xmlns="http://www.topografix.com/GPX/1/1" xmlns:xsi="http://www.w3.org/2001/XMLSchema-instance" xsi:schemaLocation="http://www.topografix.com/GPX/1/1 http://www.topografix.com/GPX/1/1/gpx.xsd" version="1.1" creator="VisuGPX - https://www.visugpx.com">
  <metadata>
    <name> 71 loisirs au village</name>
    <desc><![CDATA[                                                                                                    ]]></desc>
  </metadata>
  <trk>
    <name><![CDATA[OR-5172329--Saint-Médard-en-Forez:71 loisirs au village]]></name>
    <trkseg>
      <trkpt lat="45.59671" lon="4.36181">
        <ele>546</ele>
        <time>2017-07-01T08:01:28Z</time>
      </trkpt>
      <trkpt lat="45.59638" lon="4.36228">
        <ele>545</ele>
        <time>2017-07-01T08:03:28Z</time>
      </trkpt>
      <trkpt lat="45.59662" lon="4.36327">
        <ele>547</ele>
        <time>2017-07-01T08:05:28Z</time>
      </trkpt>
      <trkpt lat="45.59575" lon="4.364">
        <ele>546</ele>
        <time>2017-07-01T08:07:28Z</time>
      </trkpt>
      <trkpt lat="45.59518" lon="4.36524">
        <ele>548</ele>
        <time>2017-07-01T08:09:28Z</time>
      </trkpt>
      <trkpt lat="45.59515" lon="4.36679">
        <ele>549</ele>
        <time>2017-07-01T08:11:28Z</time>
      </trkpt>
      <trkpt lat="45.59461" lon="4.36821">
        <ele>549</ele>
        <time>2017-07-01T08:13:28Z</time>
      </trkpt>
      <trkpt lat="45.59395" lon="4.36971">
        <ele>550</ele>
        <time>2017-07-01T08:15:28Z</time>
      </trkpt>
      <trkpt lat="45.59338" lon="4.37031">
        <ele>551</ele>
        <time>2017-07-01T08:17:28Z</time>
      </trkpt>
      <trkpt lat="45.59335" lon="4.37065">
        <ele>550</ele>
        <time>2017-07-01T08:19:28Z</time>
      </trkpt>
      <trkpt lat="45.59311" lon="4.37087">
        <ele>550</ele>
        <time>2017-07-01T08:21:28Z</time>
      </trkpt>
      <trkpt lat="45.59236" lon="4.37112">
        <ele>552</ele>
        <time>2017-07-01T08:23:28Z</time>
      </trkpt>
      <trkpt lat="45.59215" lon="4.37207">
        <ele>550</ele>
        <time>2017-07-01T08:25:28Z</time>
      </trkpt>
      <trkpt lat="45.59197" lon="4.37323">
        <ele>550</ele>
        <time>2017-07-01T08:27:28Z</time>
      </trkpt>
      <trkpt lat="45.59152" lon="4.37426">
        <ele>548</ele>
        <time>2017-07-01T08:29:28Z</time>
      </trkpt>
      <trkpt lat="45.59053" lon="4.37554">
        <ele>536</ele>
        <time>2017-07-01T08:31:28Z</time>
      </trkpt>
      <trkpt lat="45.58929" lon="4.37713">
        <ele>526</ele>
        <time>2017-07-01T08:33:28Z</time>
      </trkpt>
      <trkpt lat="45.5886" lon="4.37829">
        <ele>524</ele>
        <time>2017-07-01T08:35:28Z</time>
      </trkpt>
      <trkpt lat="45.588" lon="4.37846">
        <ele>528</ele>
        <time>2017-07-01T08:37:28Z</time>
      </trkpt>
      <trkpt lat="45.58749" lon="4.37923">
        <ele>535</ele>
        <time>2017-07-01T08:39:28Z</time>
      </trkpt>
      <trkpt lat="45.58698" lon="4.37923">
        <ele>541</ele>
        <time>2017-07-01T08:41:28Z</time>
      </trkpt>
      <trkpt lat="45.58614" lon="4.37872">
        <ele>551</ele>
        <time>2017-07-01T08:43:28Z</time>
      </trkpt>
      <trkpt lat="45.58554" lon="4.37868">
        <ele>559</ele>
        <time>2017-07-01T08:45:28Z</time>
      </trkpt>
      <trkpt lat="45.5847" lon="4.37885">
        <ele>570</ele>
        <time>2017-07-01T08:47:28Z</time>
      </trkpt>
      <trkpt lat="45.58395" lon="4.37911">
        <ele>583</ele>
        <time>2017-07-01T08:49:28Z</time>
      </trkpt>
      <trkpt lat="45.58347" lon="4.38022">
        <ele>588</ele>
        <time>2017-07-01T08:51:28Z</time>
      </trkpt>
      <trkpt lat="45.58191" lon="4.38134">
        <ele>600</ele>
        <time>2017-07-01T08:53:28Z</time>
      </trkpt>
      <trkpt lat="45.58224" lon="4.38215">
        <ele>599</ele>
        <time>2017-07-01T08:55:28Z</time>
      </trkpt>
      <trkpt lat="45.58269" lon="4.38327">
        <ele>599</ele>
        <time>2017-07-01T08:57:28Z</time>
      </trkpt>
      <trkpt lat="45.58305" lon="4.38404">
        <ele>598</ele>
        <time>2017-07-01T08:59:28Z</time>
      </trkpt>
      <trkpt lat="45.58257" lon="4.3858">
        <ele>600</ele>
        <time>2017-07-01T09:01:28Z</time>
      </trkpt>
      <trkpt lat="45.58242" lon="4.38679">
        <ele>595</ele>
        <time>2017-07-01T09:03:28Z</time>
      </trkpt>
      <trkpt lat="45.58296" lon="4.38747">
        <ele>592</ele>
        <time>2017-07-01T09:05:28Z</time>
      </trkpt>
      <trkpt lat="45.58404" lon="4.38709">
        <ele>584</ele>
        <time>2017-07-01T09:07:28Z</time>
      </trkpt>
      <trkpt lat="45.58494" lon="4.38632">
        <ele>571</ele>
        <time>2017-07-01T09:09:28Z</time>
      </trkpt>
      <trkpt lat="45.58593" lon="4.3849">
        <ele>562</ele>
        <time>2017-07-01T09:11:28Z</time>
      </trkpt>
      <trkpt lat="45.58584" lon="4.38344">
        <ele>548</ele>
        <time>2017-07-01T09:13:28Z</time>
      </trkpt>
      <trkpt lat="45.58641" lon="4.3837">
        <ele>541</ele>
        <time>2017-07-01T09:15:28Z</time>
      </trkpt>
      <trkpt lat="45.58692" lon="4.38301">
        <ele>535</ele>
        <time>2017-07-01T09:17:28Z</time>
      </trkpt>
      <trkpt lat="45.58755" lon="4.38353">
        <ele>536</ele>
        <time>2017-07-01T09:19:28Z</time>
      </trkpt>
      <trkpt lat="45.58824" lon="4.38335">
        <ele>548</ele>
        <time>2017-07-01T09:21:28Z</time>
      </trkpt>
      <trkpt lat="45.58941" lon="4.38232">
        <ele>561</ele>
        <time>2017-07-01T09:23:28Z</time>
      </trkpt>
      <trkpt lat="45.59026" lon="4.38361">
        <ele>569</ele>
        <time>2017-07-01T09:25:28Z</time>
      </trkpt>
      <trkpt lat="45.5902" lon="4.38559">
        <ele>571</ele>
        <time>2017-07-01T09:27:28Z</time>
      </trkpt>
      <trkpt lat="45.59008" lon="4.38769">
        <ele>578</ele>
        <time>2017-07-01T09:29:28Z</time>
      </trkpt>
      <trkpt lat="45.58968" lon="4.38992">
        <ele>580</ele>
        <time>2017-07-01T09:31:28Z</time>
      </trkpt>
      <trkpt lat="45.5895" lon="4.39125">
        <ele>582</ele>
        <time>2017-07-01T09:33:28Z</time>
      </trkpt>
      <trkpt lat="45.58908" lon="4.39288">
        <ele>588</ele>
        <time>2017-07-01T09:35:28Z</time>
      </trkpt>
      <trkpt lat="45.5895" lon="4.39593">
        <ele>594</ele>
        <time>2017-07-01T09:37:28Z</time>
      </trkpt>
      <trkpt lat="45.5895" lon="4.39683">
        <ele>595</ele>
        <time>2017-07-01T09:39:28Z</time>
      </trkpt>
      <trkpt lat="45.59047" lon="4.39696">
        <ele>590</ele>
        <time>2017-07-01T09:41:28Z</time>
      </trkpt>
      <trkpt lat="45.59251" lon="4.39657">
        <ele>556</ele>
        <time>2017-07-01T09:43:28Z</time>
      </trkpt>
      <trkpt lat="45.59314" lon="4.39567">
        <ele>543</ele>
        <time>2017-07-01T09:45:28Z</time>
      </trkpt>
      <trkpt lat="45.59428" lon="4.39636">
        <ele>526</ele>
        <time>2017-07-01T09:47:28Z</time>
      </trkpt>
      <trkpt lat="45.5953" lon="4.39657">
        <ele>515</ele>
        <time>2017-07-01T09:49:28Z</time>
      </trkpt>
      <trkpt lat="45.59614" lon="4.39606">
        <ele>514</ele>
        <time>2017-07-01T09:51:28Z</time>
      </trkpt>
      <trkpt lat="45.59662" lon="4.39546">
        <ele>511</ele>
        <time>2017-07-01T09:53:28Z</time>
      </trkpt>
      <trkpt lat="45.59785" lon="4.3952">
        <ele>513</ele>
        <time>2017-07-01T09:55:28Z</time>
      </trkpt>
      <trkpt lat="45.59824" lon="4.39451">
        <ele>507</ele>
        <time>2017-07-01T09:57:28Z</time>
      </trkpt>
      <trkpt lat="45.59914" lon="4.39447">
        <ele>518</ele>
        <time>2017-07-01T09:59:28Z</time>
      </trkpt>
      <trkpt lat="45.59998" lon="4.394">
        <ele>520</ele>
        <time>2017-07-01T10:01:28Z</time>
      </trkpt>
      <trkpt lat="45.60077" lon="4.39516">
        <ele>531</ele>
        <time>2017-07-01T10:03:28Z</time>
      </trkpt>
      <trkpt lat="45.60194" lon="4.39451">
        <ele>531</ele>
        <time>2017-07-01T10:05:28Z</time>
      </trkpt>
      <trkpt lat="45.60284" lon="4.39314">
        <ele>526</ele>
        <time>2017-07-01T10:07:28Z</time>
      </trkpt>
      <trkpt lat="45.60407" lon="4.39245">
        <ele>529</ele>
        <time>2017-07-01T10:09:28Z</time>
      </trkpt>
      <trkpt lat="45.60371" lon="4.39413">
        <ele>535</ele>
        <time>2017-07-01T10:11:28Z</time>
      </trkpt>
      <trkpt lat="45.60368" lon="4.39563">
        <ele>540</ele>
        <time>2017-07-01T10:13:28Z</time>
      </trkpt>
      <trkpt lat="45.60431" lon="4.39636">
        <ele>537</ele>
        <time>2017-07-01T10:15:28Z</time>
      </trkpt>
      <trkpt lat="45.60413" lon="4.39812">
        <ele>531</ele>
        <time>2017-07-01T10:17:28Z</time>
      </trkpt>
      <trkpt lat="45.6032" lon="4.39992">
        <ele>538</ele>
        <time>2017-07-01T10:19:28Z</time>
      </trkpt>
      <trkpt lat="45.60386" lon="4.40219">
        <ele>537</ele>
        <time>2017-07-01T10:21:28Z</time>
      </trkpt>
      <trkpt lat="45.60338" lon="4.40318">
        <ele>545</ele>
        <time>2017-07-01T10:23:28Z</time>
      </trkpt>
      <trkpt lat="45.6029" lon="4.4034">
        <ele>549</ele>
        <time>2017-07-01T10:25:28Z</time>
      </trkpt>
      <trkpt lat="45.60269" lon="4.40554">
        <ele>561</ele>
        <time>2017-07-01T10:27:28Z</time>
      </trkpt>
      <trkpt lat="45.60263" lon="4.4061">
        <ele>563</ele>
        <time>2017-07-01T10:29:28Z</time>
      </trkpt>
      <trkpt lat="45.60182" lon="4.40837">
        <ele>578</ele>
        <time>2017-07-01T10:31:28Z</time>
      </trkpt>
      <trkpt lat="45.60185" lon="4.40949">
        <ele>577</ele>
        <time>2017-07-01T10:33:28Z</time>
      </trkpt>
      <trkpt lat="45.60302" lon="4.4097">
        <ele>564</ele>
        <time>2017-07-01T10:35:28Z</time>
      </trkpt>
      <trkpt lat="45.60422" lon="4.41056">
        <ele>554</ele>
        <time>2017-07-01T10:37:28Z</time>
      </trkpt>
      <trkpt lat="45.60551" lon="4.41018">
        <ele>548</ele>
        <time>2017-07-01T10:39:28Z</time>
      </trkpt>
      <trkpt lat="45.60806" lon="4.40983">
        <ele>546</ele>
        <time>2017-07-01T10:41:28Z</time>
      </trkpt>
      <trkpt lat="45.60893" lon="4.41078">
        <ele>538</ele>
        <time>2017-07-01T10:43:28Z</time>
      </trkpt>
      <trkpt lat="45.60932" lon="4.41138">
        <ele>530</ele>
        <time>2017-07-01T10:45:28Z</time>
      </trkpt>
      <trkpt lat="45.61058" lon="4.41176">
        <ele>518</ele>
        <time>2017-07-01T10:47:28Z</time>
      </trkpt>
      <trkpt lat="45.61151" lon="4.41207">
        <ele>510</ele>
        <time>2017-07-01T10:49:28Z</time>
      </trkpt>
      <trkpt lat="45.61199" lon="4.41275">
        <ele>499</ele>
        <time>2017-07-01T10:51:28Z</time>
      </trkpt>
      <trkpt lat="45.61313" lon="4.41331">
        <ele>482</ele>
        <time>2017-07-01T10:53:28Z</time>
      </trkpt>
      <trkpt lat="45.61434" lon="4.41344">
        <ele>470</ele>
        <time>2017-07-01T10:55:28Z</time>
      </trkpt>
      <trkpt lat="45.61533" lon="4.41417">
        <ele>466</ele>
        <time>2017-07-01T10:57:28Z</time>
      </trkpt>
      <trkpt lat="45.61599" lon="4.41485">
        <ele>468</ele>
        <time>2017-07-01T10:59:28Z</time>
      </trkpt>
      <trkpt lat="45.61608" lon="4.4164">
        <ele>465</ele>
        <time>2017-07-01T11:01:28Z</time>
      </trkpt>
      <trkpt lat="45.6165" lon="4.41902">
        <ele>469</ele>
        <time>2017-07-01T11:03:28Z</time>
      </trkpt>
      <trkpt lat="45.61758" lon="4.41988">
        <ele>470</ele>
        <time>2017-07-01T11:05:28Z</time>
      </trkpt>
      <trkpt lat="45.61797" lon="4.42185">
        <ele>469</ele>
        <time>2017-07-01T11:07:28Z</time>
      </trkpt>
      <trkpt lat="45.61788" lon="4.42245">
        <ele>469</ele>
        <time>2017-07-01T11:09:28Z</time>
      </trkpt>
      <trkpt lat="45.61884" lon="4.42279">
        <ele>471</ele>
        <time>2017-07-01T11:11:28Z</time>
      </trkpt>
      <trkpt lat="45.61995" lon="4.42309">
        <ele>476</ele>
        <time>2017-07-01T11:13:28Z</time>
      </trkpt>
      <trkpt lat="45.62079" lon="4.42288">
        <ele>483</ele>
        <time>2017-07-01T11:15:28Z</time>
      </trkpt>
      <trkpt lat="45.62274" lon="4.42279">
        <ele>486</ele>
        <time>2017-07-01T11:17:28Z</time>
      </trkpt>
      <trkpt lat="45.62394" lon="4.42271">
        <ele>490</ele>
        <time>2017-07-01T11:19:28Z</time>
      </trkpt>
      <trkpt lat="45.62505" lon="4.42477">
        <ele>488</ele>
        <time>2017-07-01T11:21:28Z</time>
      </trkpt>
      <trkpt lat="45.6252" lon="4.4258">
        <ele>484</ele>
        <time>2017-07-01T11:23:28Z</time>
      </trkpt>
      <trkpt lat="45.62535" lon="4.42777">
        <ele>487</ele>
        <time>2017-07-01T11:25:28Z</time>
      </trkpt>
      <trkpt lat="45.62592" lon="4.42863">
        <ele>496</ele>
        <time>2017-07-01T11:27:28Z</time>
      </trkpt>
      <trkpt lat="45.62595" lon="4.43155">
        <ele>504</ele>
        <time>2017-07-01T11:29:28Z</time>
      </trkpt>
      <trkpt lat="45.62538" lon="4.43404">
        <ele>503</ele>
        <time>2017-07-01T11:31:28Z</time>
      </trkpt>
      <trkpt lat="45.62442" lon="4.43683">
        <ele>494</ele>
        <time>2017-07-01T11:33:28Z</time>
      </trkpt>
      <trkpt lat="45.62388" lon="4.43927">
        <ele>494</ele>
        <time>2017-07-01T11:35:28Z</time>
      </trkpt>
      <trkpt lat="45.62391" lon="4.44056">
        <ele>494</ele>
        <time>2017-07-01T11:37:28Z</time>
      </trkpt>
      <trkpt lat="45.624" lon="4.44176">
        <ele>497</ele>
        <time>2017-07-01T11:39:28Z</time>
      </trkpt>
      <trkpt lat="45.62355" lon="4.44284">
        <ele>496</ele>
        <time>2017-07-01T11:41:28Z</time>
      </trkpt>
      <trkpt lat="45.62325" lon="4.44434">
        <ele>497</ele>
        <time>2017-07-01T11:43:28Z</time>
      </trkpt>
      <trkpt lat="45.62307" lon="4.44464">
        <ele>495</ele>
        <time>2017-07-01T11:45:28Z</time>
      </trkpt>
      <trkpt lat="45.62379" lon="4.44537">
        <ele>500</ele>
        <time>2017-07-01T11:47:28Z</time>
      </trkpt>
      <trkpt lat="45.62388" lon="4.44661">
        <ele>507</ele>
        <time>2017-07-01T11:49:28Z</time>
      </trkpt>
      <trkpt lat="45.62544" lon="4.4464">
        <ele>515</ele>
        <time>2017-07-01T11:51:28Z</time>
      </trkpt>
      <trkpt lat="45.62667" lon="4.44799">
        <ele>537</ele>
        <time>2017-07-01T11:53:28Z</time>
      </trkpt>
      <trkpt lat="45.62748" lon="4.44863">
        <ele>544</ele>
        <time>2017-07-01T11:55:28Z</time>
      </trkpt>
      <trkpt lat="45.62847" lon="4.44811">
        <ele>543</ele>
        <time>2017-07-01T11:57:28Z</time>
      </trkpt>
      <trkpt lat="45.62877" lon="4.44957">
        <ele>545</ele>
        <time>2017-07-01T11:59:28Z</time>
      </trkpt>
      <trkpt lat="45.62886" lon="4.45052">
        <ele>550</ele>
        <time>2017-07-01T12:01:28Z</time>
      </trkpt>
      <trkpt lat="45.62979" lon="4.45095">
        <ele>548</ele>
        <time>2017-07-01T12:03:28Z</time>
      </trkpt>
      <trkpt lat="45.63" lon="4.45202">
        <ele>557</ele>
        <time>2017-07-01T12:05:28Z</time>
      </trkpt>
      <trkpt lat="45.63114" lon="4.45288">
        <ele>563</ele>
        <time>2017-07-01T12:07:28Z</time>
      </trkpt>
      <trkpt lat="45.63073" lon="4.45356">
        <ele>570</ele>
        <time>2017-07-01T12:09:28Z</time>
      </trkpt>
      <trkpt lat="45.63077" lon="4.45372">
        <ele>571</ele>
        <time>2017-07-01T12:11:28Z</time>
      </trkpt>
      <trkpt lat="45.63091" lon="4.45353">
        <ele>571</ele>
        <time>2017-07-01T12:13:28Z</time>
      </trkpt>
      <trkpt lat="45.63109" lon="4.45347">
        <ele>572</ele>
        <time>2017-07-01T12:15:28Z</time>
      </trkpt>
      <trkpt lat="45.63117" lon="4.45368">
        <ele>575</ele>
        <time>2017-07-01T12:17:28Z</time>
      </trkpt>
      <trkpt lat="45.63123" lon="4.45382">
        <ele>577</ele>
        <time>2017-07-01T12:19:28Z</time>
      </trkpt>
      <trkpt lat="45.63129" lon="4.454">
        <ele>580</ele>
        <time>2017-07-01T12:21:28Z</time>
      </trkpt>
      <trkpt lat="45.63132" lon="4.45437">
        <ele>582</ele>
        <time>2017-07-01T12:23:28Z</time>
      </trkpt>
      <trkpt lat="45.6315" lon="4.45447">
        <ele>585</ele>
        <time>2017-07-01T12:25:28Z</time>
      </trkpt>
      <trkpt lat="45.63165" lon="4.4547">
        <ele>587</ele>
        <time>2017-07-01T12:27:28Z</time>
      </trkpt>
      <trkpt lat="45.63201" lon="4.45501">
        <ele>590</ele>
        <time>2017-07-01T12:29:28Z</time>
      </trkpt>
      <trkpt lat="45.63283" lon="4.45528">
        <ele>589</ele>
        <time>2017-07-01T12:31:28Z</time>
      </trkpt>
      <trkpt lat="45.63283" lon="4.45485">
        <ele>589</ele>
        <time>2017-07-01T12:33:28Z</time>
      </trkpt>
      <trkpt lat="45.63241" lon="4.45456">
        <ele>593</ele>
        <time>2017-07-01T12:35:28Z</time>
      </trkpt>
      <trkpt lat="45.63231" lon="4.45443">
        <ele>593</ele>
        <time>2017-07-01T12:37:28Z</time>
      </trkpt>
      <trkpt lat="45.63222" lon="4.45388">
        <ele>589</ele>
        <time>2017-07-01T12:39:28Z</time>
      </trkpt>
      <trkpt lat="45.63232" lon="4.45361">
        <ele>587</ele>
        <time>2017-07-01T12:41:28Z</time>
      </trkpt>
      <trkpt lat="45.63258" lon="4.45361">
        <ele>586</ele>
        <time>2017-07-01T12:43:28Z</time>
      </trkpt>
      <trkpt lat="45.6327" lon="4.45392">
        <ele>587</ele>
        <time>2017-07-01T12:45:28Z</time>
      </trkpt>
      <trkpt lat="45.63272" lon="4.45415">
        <ele>589</ele>
        <time>2017-07-01T12:47:28Z</time>
      </trkpt>
      <trkpt lat="45.63248" lon="4.45436">
        <ele>594</ele>
        <time>2017-07-01T12:49:28Z</time>
      </trkpt>
      <trkpt lat="45.63219" lon="4.45442">
        <ele>592</ele>
        <time>2017-07-01T12:51:28Z</time>
      </trkpt>
      <trkpt lat="45.63201" lon="4.45429">
        <ele>590</ele>
        <time>2017-07-01T12:53:28Z</time>
      </trkpt>
      <trkpt lat="45.63192" lon="4.45401">
        <ele>588</ele>
        <time>2017-07-01T12:55:28Z</time>
      </trkpt>
      <trkpt lat="45.63183" lon="4.45403">
        <ele>587</ele>
        <time>2017-07-01T12:57:28Z</time>
      </trkpt>
      <trkpt lat="45.63189" lon="4.45361">
        <ele>582</ele>
        <time>2017-07-01T12:59:28Z</time>
      </trkpt>
      <trkpt lat="45.63216" lon="4.45312">
        <ele>577</ele>
        <time>2017-07-01T13:01:28Z</time>
      </trkpt>
      <trkpt lat="45.63206" lon="4.453">
        <ele>573</ele>
        <time>2017-07-01T13:03:28Z</time>
      </trkpt>
      <trkpt lat="45.63177" lon="4.45327">
        <ele>577</ele>
        <time>2017-07-01T13:05:28Z</time>
      </trkpt>
      <trkpt lat="45.63173" lon="4.45318">
        <ele>574</ele>
        <time>2017-07-01T13:07:28Z</time>
      </trkpt>
      <trkpt lat="45.63203" lon="4.45278">
        <ele>568</ele>
        <time>2017-07-01T13:09:28Z</time>
      </trkpt>
      <trkpt lat="45.63228" lon="4.45259">
        <ele>566</ele>
        <time>2017-07-01T13:11:28Z</time>
      </trkpt>
      <trkpt lat="45.63255" lon="4.45243">
        <ele>566</ele>
        <time>2017-07-01T13:13:28Z</time>
      </trkpt>
      <trkpt lat="45.63285" lon="4.45184">
        <ele>566</ele>
        <time>2017-07-01T13:15:28Z</time>
      </trkpt>
      <trkpt lat="45.6329" lon="4.45138">
        <ele>569</ele>
        <time>2017-07-01T13:17:28Z</time>
      </trkpt>
      <trkpt lat="45.63282" lon="4.45108">
        <ele>570</ele>
        <time>2017-07-01T13:19:28Z</time>
      </trkpt>
      <trkpt lat="45.63267" lon="4.45065">
        <ele>571</ele>
        <time>2017-07-01T13:21:28Z</time>
      </trkpt>
      <trkpt lat="45.63251" lon="4.4504">
        <ele>570</ele>
        <time>2017-07-01T13:23:28Z</time>
      </trkpt>
      <trkpt lat="45.63222" lon="4.45016">
        <ele>571</ele>
        <time>2017-07-01T13:25:28Z</time>
      </trkpt>
      <trkpt lat="45.6318" lon="4.44983">
        <ele>571</ele>
        <time>2017-07-01T13:27:28Z</time>
      </trkpt>
      <trkpt lat="45.6316" lon="4.44968">
        <ele>571</ele>
        <time>2017-07-01T13:29:28Z</time>
      </trkpt>
      <trkpt lat="45.63076" lon="4.44815">
        <ele>574</ele>
        <time>2017-07-01T13:31:28Z</time>
      </trkpt>
      <trkpt lat="45.62954" lon="4.44694">
        <ele>576</ele>
        <time>2017-07-01T13:33:28Z</time>
      </trkpt>
      <trkpt lat="45.62873" lon="4.44585">
        <ele>583</ele>
        <time>2017-07-01T13:35:28Z</time>
      </trkpt>
      <trkpt lat="45.62864" lon="4.44488">
        <ele>579</ele>
        <time>2017-07-01T13:37:28Z</time>
      </trkpt>
      <trkpt lat="45.62867" lon="4.44407">
        <ele>577</ele>
        <time>2017-07-01T13:39:28Z</time>
      </trkpt>
      <trkpt lat="45.62958" lon="4.44222">
        <ele>566</ele>
        <time>2017-07-01T13:41:28Z</time>
      </trkpt>
      <trkpt lat="45.63047" lon="4.44169">
        <ele>565</ele>
        <time>2017-07-01T13:43:28Z</time>
      </trkpt>
      <trkpt lat="45.63095" lon="4.44117">
        <ele>566</ele>
        <time>2017-07-01T13:45:28Z</time>
      </trkpt>
      <trkpt lat="45.6311" lon="4.44004">
        <ele>568</ele>
        <time>2017-07-01T13:47:28Z</time>
      </trkpt>
      <trkpt lat="45.63098" lon="4.43665">
        <ele>567</ele>
        <time>2017-07-01T13:49:28Z</time>
      </trkpt>
      <trkpt lat="45.63141" lon="4.4339">
        <ele>557</ele>
        <time>2017-07-01T13:51:28Z</time>
      </trkpt>
      <trkpt lat="45.63161" lon="4.43173">
        <ele>552</ele>
        <time>2017-07-01T13:53:28Z</time>
      </trkpt>
      <trkpt lat="45.63159" lon="4.43087">
        <ele>551</ele>
        <time>2017-07-01T13:55:28Z</time>
      </trkpt>
      <trkpt lat="45.63231" lon="4.43066">
        <ele>553</ele>
        <time>2017-07-01T13:57:28Z</time>
      </trkpt>
      <trkpt lat="45.6327" lon="4.43034">
        <ele>551</ele>
        <time>2017-07-01T13:59:28Z</time>
      </trkpt>
      <trkpt lat="45.63284" lon="4.43077">
        <ele>551</ele>
        <time>2017-07-01T14:01:28Z</time>
      </trkpt>
      <trkpt lat="45.63327" lon="4.43068">
        <ele>547</ele>
        <time>2017-07-01T14:03:28Z</time>
      </trkpt>
      <trkpt lat="45.63357" lon="4.43109">
        <ele>547</ele>
        <time>2017-07-01T14:05:28Z</time>
      </trkpt>
      <trkpt lat="45.63366" lon="4.43055">
        <ele>545</ele>
        <time>2017-07-01T14:07:28Z</time>
      </trkpt>
      <trkpt lat="45.63336" lon="4.43008">
        <ele>543</ele>
        <time>2017-07-01T14:09:28Z</time>
      </trkpt>
      <trkpt lat="45.63396" lon="4.42969">
        <ele>544</ele>
        <time>2017-07-01T14:11:28Z</time>
      </trkpt>
      <trkpt lat="45.63399" lon="4.42903">
        <ele>545</ele>
        <time>2017-07-01T14:13:28Z</time>
      </trkpt>
      <trkpt lat="45.63371" lon="4.42841">
        <ele>540</ele>
        <time>2017-07-01T14:15:28Z</time>
      </trkpt>
      <trkpt lat="45.63327" lon="4.42843">
        <ele>535</ele>
        <time>2017-07-01T14:17:28Z</time>
      </trkpt>
      <trkpt lat="45.63323" lon="4.42703">
        <ele>534</ele>
        <time>2017-07-01T14:19:28Z</time>
      </trkpt>
      <trkpt lat="45.63308" lon="4.4275">
        <ele>534</ele>
        <time>2017-07-01T14:21:28Z</time>
      </trkpt>
      <trkpt lat="45.63312" lon="4.42838">
        <ele>536</ele>
        <time>2017-07-01T14:23:28Z</time>
      </trkpt>
      <trkpt lat="45.63294" lon="4.42838">
        <ele>538</ele>
        <time>2017-07-01T14:25:28Z</time>
      </trkpt>
      <trkpt lat="45.63272" lon="4.4278">
        <ele>538</ele>
        <time>2017-07-01T14:27:28Z</time>
      </trkpt>
      <trkpt lat="45.63284" lon="4.42703">
        <ele>536</ele>
        <time>2017-07-01T14:29:28Z</time>
      </trkpt>
      <trkpt lat="45.63249" lon="4.42617">
        <ele>532</ele>
        <time>2017-07-01T14:31:28Z</time>
      </trkpt>
      <trkpt lat="45.63174" lon="4.42482">
        <ele>534</ele>
        <time>2017-07-01T14:33:28Z</time>
      </trkpt>
      <trkpt lat="45.63144" lon="4.42308">
        <ele>524</ele>
        <time>2017-07-01T14:35:28Z</time>
      </trkpt>
      <trkpt lat="45.63132" lon="4.42152">
        <ele>528</ele>
        <time>2017-07-01T14:37:28Z</time>
      </trkpt>
      <trkpt lat="45.63129" lon="4.42124">
        <ele>531</ele>
        <time>2017-07-01T14:39:28Z</time>
      </trkpt>
      <trkpt lat="45.63138" lon="4.41933">
        <ele>545</ele>
        <time>2017-07-01T14:41:28Z</time>
      </trkpt>
      <trkpt lat="45.63294" lon="4.41902">
        <ele>559</ele>
        <time>2017-07-01T14:43:28Z</time>
      </trkpt>
      <trkpt lat="45.63387" lon="4.41953">
        <ele>570</ele>
        <time>2017-07-01T14:45:28Z</time>
      </trkpt>
      <trkpt lat="45.63729" lon="4.41945">
        <ele>603</ele>
        <time>2017-07-01T14:47:28Z</time>
      </trkpt>
      <trkpt lat="45.63742" lon="4.41842">
        <ele>606</ele>
        <time>2017-07-01T14:49:28Z</time>
      </trkpt>
      <trkpt lat="45.63832" lon="4.41756">
        <ele>616</ele>
        <time>2017-07-01T14:51:28Z</time>
      </trkpt>
      <trkpt lat="45.63928" lon="4.41644">
        <ele>615</ele>
        <time>2017-07-01T14:53:28Z</time>
      </trkpt>
      <trkpt lat="45.63955" lon="4.41434">
        <ele>615</ele>
        <time>2017-07-01T14:55:28Z</time>
      </trkpt>
      <trkpt lat="45.64036" lon="4.41357">
        <ele>614</ele>
        <time>2017-07-01T14:57:28Z</time>
      </trkpt>
      <trkpt lat="45.64057" lon="4.41284">
        <ele>609</ele>
        <time>2017-07-01T14:59:28Z</time>
      </trkpt>
      <trkpt lat="45.64057" lon="4.41138">
        <ele>588</ele>
        <time>2017-07-01T15:01:28Z</time>
      </trkpt>
      <trkpt lat="45.63991" lon="4.41099">
        <ele>571</ele>
        <time>2017-07-01T15:03:28Z</time>
      </trkpt>
      <trkpt lat="45.64036" lon="4.41086">
        <ele>575</ele>
        <time>2017-07-01T15:05:28Z</time>
      </trkpt>
      <trkpt lat="45.64045" lon="4.41009">
        <ele>569</ele>
        <time>2017-07-01T15:07:28Z</time>
      </trkpt>
      <trkpt lat="45.63988" lon="4.40975">
        <ele>564</ele>
        <time>2017-07-01T15:09:28Z</time>
      </trkpt>
      <trkpt lat="45.6394" lon="4.40936">
        <ele>562</ele>
        <time>2017-07-01T15:11:28Z</time>
      </trkpt>
      <trkpt lat="45.6391" lon="4.40837">
        <ele>570</ele>
        <time>2017-07-01T15:13:28Z</time>
      </trkpt>
      <trkpt lat="45.63913" lon="4.40726">
        <ele>579</ele>
        <time>2017-07-01T15:15:28Z</time>
      </trkpt>
      <trkpt lat="45.63862" lon="4.40661">
        <ele>579</ele>
        <time>2017-07-01T15:17:28Z</time>
      </trkpt>
      <trkpt lat="45.6382" lon="4.40597">
        <ele>576</ele>
        <time>2017-07-01T15:19:28Z</time>
      </trkpt>
      <trkpt lat="45.63808" lon="4.40533">
        <ele>574</ele>
        <time>2017-07-01T15:21:28Z</time>
      </trkpt>
      <trkpt lat="45.63775" lon="4.40473">
        <ele>570</ele>
        <time>2017-07-01T15:23:28Z</time>
      </trkpt>
      <trkpt lat="45.63802" lon="4.40344">
        <ele>574</ele>
        <time>2017-07-01T15:25:28Z</time>
      </trkpt>
      <trkpt lat="45.6388" lon="4.40215">
        <ele>579</ele>
        <time>2017-07-01T15:27:28Z</time>
      </trkpt>
      <trkpt lat="45.63868" lon="4.40031">
        <ele>591</ele>
        <time>2017-07-01T15:29:28Z</time>
      </trkpt>
      <trkpt lat="45.63928" lon="4.39893">
        <ele>601</ele>
        <time>2017-07-01T15:31:28Z</time>
      </trkpt>
      <trkpt lat="45.63895" lon="4.39855">
        <ele>603</ele>
        <time>2017-07-01T15:33:28Z</time>
      </trkpt>
      <trkpt lat="45.63862" lon="4.39692">
        <ele>612</ele>
        <time>2017-07-01T15:35:28Z</time>
      </trkpt>
      <trkpt lat="45.63826" lon="4.39563">
        <ele>620</ele>
        <time>2017-07-01T15:37:28Z</time>
      </trkpt>
      <trkpt lat="45.63808" lon="4.39486">
        <ele>626</ele>
        <time>2017-07-01T15:39:28Z</time>
      </trkpt>
      <trkpt lat="45.63639" lon="4.39559">
        <ele>625</ele>
        <time>2017-07-01T15:41:28Z</time>
      </trkpt>
      <trkpt lat="45.63513" lon="4.39619">
        <ele>618</ele>
        <time>2017-07-01T15:43:28Z</time>
      </trkpt>
      <trkpt lat="45.63447" lon="4.39679">
        <ele>612</ele>
        <time>2017-07-01T15:45:28Z</time>
      </trkpt>
      <trkpt lat="45.63297" lon="4.39687">
        <ele>599</ele>
        <time>2017-07-01T15:47:28Z</time>
      </trkpt>
      <trkpt lat="45.63138" lon="4.39726">
        <ele>582</ele>
        <time>2017-07-01T15:49:28Z</time>
      </trkpt>
      <trkpt lat="45.63114" lon="4.39812">
        <ele>576</ele>
        <time>2017-07-01T15:51:28Z</time>
      </trkpt>
      <trkpt lat="45.62946" lon="4.40026">
        <ele>557</ele>
        <time>2017-07-01T15:53:28Z</time>
      </trkpt>
      <trkpt lat="45.62811" lon="4.40125">
        <ele>548</ele>
        <time>2017-07-01T15:55:28Z</time>
      </trkpt>
      <trkpt lat="45.62694" lon="4.40546">
        <ele>534</ele>
        <time>2017-07-01T15:57:28Z</time>
      </trkpt>
      <trkpt lat="45.62712" lon="4.40636">
        <ele>536</ele>
        <time>2017-07-01T15:59:28Z</time>
      </trkpt>
      <trkpt lat="45.62631" lon="4.40726">
        <ele>542</ele>
        <time>2017-07-01T16:01:28Z</time>
      </trkpt>
      <trkpt lat="45.6258" lon="4.4088">
        <ele>547</ele>
        <time>2017-07-01T16:03:28Z</time>
      </trkpt>
      <trkpt lat="45.62529" lon="4.41031">
        <ele>554</ele>
        <time>2017-07-01T16:05:28Z</time>
      </trkpt>
      <trkpt lat="45.62484" lon="4.41181">
        <ele>557</ele>
        <time>2017-07-01T16:07:28Z</time>
      </trkpt>
      <trkpt lat="45.62256" lon="4.40769">
        <ele>546</ele>
        <time>2017-07-01T16:09:28Z</time>
      </trkpt>
      <trkpt lat="45.62223" lon="4.4058">
        <ele>543</ele>
        <time>2017-07-01T16:11:28Z</time>
      </trkpt>
      <trkpt lat="45.62184" lon="4.40421">
        <ele>537</ele>
        <time>2017-07-01T16:13:28Z</time>
      </trkpt>
      <trkpt lat="45.6219" lon="4.40314">
        <ele>533</ele>
        <time>2017-07-01T16:15:28Z</time>
      </trkpt>
      <trkpt lat="45.62184" lon="4.40185">
        <ele>530</ele>
        <time>2017-07-01T16:17:28Z</time>
      </trkpt>
      <trkpt lat="45.62181" lon="4.40099">
        <ele>526</ele>
        <time>2017-07-01T16:19:28Z</time>
      </trkpt>
      <trkpt lat="45.62214" lon="4.39966">
        <ele>522</ele>
        <time>2017-07-01T16:21:28Z</time>
      </trkpt>
      <trkpt lat="45.62187" lon="4.39838">
        <ele>525</ele>
        <time>2017-07-01T16:23:28Z</time>
      </trkpt>
      <trkpt lat="45.62187" lon="4.39662">
        <ele>536</ele>
        <time>2017-07-01T16:25:28Z</time>
      </trkpt>
      <trkpt lat="45.62184" lon="4.39473">
        <ele>546</ele>
        <time>2017-07-01T16:27:28Z</time>
      </trkpt>
      <trkpt lat="45.62067" lon="4.39121">
        <ele>542</ele>
        <time>2017-07-01T16:29:28Z</time>
      </trkpt>
      <trkpt lat="45.61995" lon="4.39151">
        <ele>537</ele>
        <time>2017-07-01T16:31:28Z</time>
      </trkpt>
      <trkpt lat="45.61986" lon="4.39078">
        <ele>536</ele>
        <time>2017-07-01T16:33:28Z</time>
      </trkpt>
      <trkpt lat="45.61992" lon="4.38919">
        <ele>533</ele>
        <time>2017-07-01T16:35:28Z</time>
      </trkpt>
      <trkpt lat="45.62049" lon="4.38893">
        <ele>541</ele>
        <time>2017-07-01T16:37:28Z</time>
      </trkpt>
      <trkpt lat="45.62046" lon="4.38816">
        <ele>543</ele>
        <time>2017-07-01T16:39:28Z</time>
      </trkpt>
      <trkpt lat="45.6201" lon="4.38709">
        <ele>543</ele>
        <time>2017-07-01T16:41:28Z</time>
      </trkpt>
      <trkpt lat="45.61905" lon="4.3867">
        <ele>536</ele>
        <time>2017-07-01T16:43:28Z</time>
      </trkpt>
      <trkpt lat="45.61845" lon="4.38593">
        <ele>527</ele>
        <time>2017-07-01T16:45:28Z</time>
      </trkpt>
      <trkpt lat="45.61737" lon="4.3858">
        <ele>514</ele>
        <time>2017-07-01T16:47:28Z</time>
      </trkpt>
      <trkpt lat="45.61776" lon="4.384">
        <ele>519</ele>
        <time>2017-07-01T16:49:28Z</time>
      </trkpt>
      <trkpt lat="45.61827" lon="4.38224">
        <ele>512</ele>
        <time>2017-07-01T16:51:28Z</time>
      </trkpt>
      <trkpt lat="45.61905" lon="4.38104">
        <ele>515</ele>
        <time>2017-07-01T16:53:28Z</time>
      </trkpt>
      <trkpt lat="45.61956" lon="4.37893">
        <ele>511</ele>
        <time>2017-07-01T16:55:28Z</time>
      </trkpt>
      <trkpt lat="45.61866" lon="4.37859">
        <ele>508</ele>
        <time>2017-07-01T16:57:28Z</time>
      </trkpt>
      <trkpt lat="45.618" lon="4.37636">
        <ele>501</ele>
        <time>2017-07-01T16:59:28Z</time>
      </trkpt>
      <trkpt lat="45.61791" lon="4.3752">
        <ele>496</ele>
        <time>2017-07-01T17:01:28Z</time>
      </trkpt>
      <trkpt lat="45.61872" lon="4.37464">
        <ele>492</ele>
        <time>2017-07-01T17:03:28Z</time>
      </trkpt>
      <trkpt lat="45.61935" lon="4.37512">
        <ele>493</ele>
        <time>2017-07-01T17:05:28Z</time>
      </trkpt>
      <trkpt lat="45.62046" lon="4.37533">
        <ele>496</ele>
        <time>2017-07-01T17:07:28Z</time>
      </trkpt>
      <trkpt lat="45.62154" lon="4.37499">
        <ele>500</ele>
        <time>2017-07-01T17:09:28Z</time>
      </trkpt>
      <trkpt lat="45.62205" lon="4.37503">
        <ele>503</ele>
        <time>2017-07-01T17:11:28Z</time>
      </trkpt>
      <trkpt lat="45.62277" lon="4.37413">
        <ele>499</ele>
        <time>2017-07-01T17:13:28Z</time>
      </trkpt>
      <trkpt lat="45.62289" lon="4.37151">
        <ele>500</ele>
        <time>2017-07-01T17:15:28Z</time>
      </trkpt>
      <trkpt lat="45.62253" lon="4.3676">
        <ele>492</ele>
        <time>2017-07-01T17:17:28Z</time>
      </trkpt>
      <trkpt lat="45.62256" lon="4.36391">
        <ele>513</ele>
        <time>2017-07-01T17:19:28Z</time>
      </trkpt>
      <trkpt lat="45.62262" lon="4.36112">
        <ele>519</ele>
        <time>2017-07-01T17:21:28Z</time>
      </trkpt>
      <trkpt lat="45.62223" lon="4.3604">
        <ele>522</ele>
        <time>2017-07-01T17:23:28Z</time>
      </trkpt>
      <trkpt lat="45.62151" lon="4.35834">
        <ele>542</ele>
        <time>2017-07-01T17:25:28Z</time>
      </trkpt>
      <trkpt lat="45.62073" lon="4.35696">
        <ele>543</ele>
        <time>2017-07-01T17:27:28Z</time>
      </trkpt>
      <trkpt lat="45.61989" lon="4.35868">
        <ele>538</ele>
        <time>2017-07-01T17:29:28Z</time>
      </trkpt>
      <trkpt lat="45.61965" lon="4.36014">
        <ele>531</ele>
        <time>2017-07-01T17:31:28Z</time>
      </trkpt>
      <trkpt lat="45.6186" lon="4.36134">
        <ele>526</ele>
        <time>2017-07-01T17:33:28Z</time>
      </trkpt>
      <trkpt lat="45.61755" lon="4.36228">
        <ele>534</ele>
        <time>2017-07-01T17:35:28Z</time>
      </trkpt>
      <trkpt lat="45.61722" lon="4.36164">
        <ele>529</ele>
        <time>2017-07-01T17:37:28Z</time>
      </trkpt>
      <trkpt lat="45.61707" lon="4.3607">
        <ele>521</ele>
        <time>2017-07-01T17:39:28Z</time>
      </trkpt>
      <trkpt lat="45.61707" lon="4.35902">
        <ele>510</ele>
        <time>2017-07-01T17:41:28Z</time>
      </trkpt>
      <trkpt lat="45.61773" lon="4.357">
        <ele>527</ele>
        <time>2017-07-01T17:43:28Z</time>
      </trkpt>
      <trkpt lat="45.61644" lon="4.35533">
        <ele>521</ele>
        <time>2017-07-01T17:45:28Z</time>
      </trkpt>
      <trkpt lat="45.61602" lon="4.35361">
        <ele>521</ele>
        <time>2017-07-01T17:47:28Z</time>
      </trkpt>
      <trkpt lat="45.61485" lon="4.35391">
        <ele>507</ele>
        <time>2017-07-01T17:49:28Z</time>
      </trkpt>
      <trkpt lat="45.61422" lon="4.35456">
        <ele>503</ele>
        <time>2017-07-01T17:51:28Z</time>
      </trkpt>
      <trkpt lat="45.61398" lon="4.35559">
        <ele>501</ele>
        <time>2017-07-01T17:53:28Z</time>
      </trkpt>
      <trkpt lat="45.61292" lon="4.35529">
        <ele>481</ele>
        <time>2017-07-01T17:55:28Z</time>
      </trkpt>
      <trkpt lat="45.61259" lon="4.35615">
        <ele>472</ele>
        <time>2017-07-01T17:57:28Z</time>
      </trkpt>
      <trkpt lat="45.61103" lon="4.35679">
        <ele>456</ele>
        <time>2017-07-01T17:59:28Z</time>
      </trkpt>
      <trkpt lat="45.61025" lon="4.35653">
        <ele>448</ele>
        <time>2017-07-01T18:01:28Z</time>
      </trkpt>
      <trkpt lat="45.60944" lon="4.35683">
        <ele>434</ele>
        <time>2017-07-01T18:03:28Z</time>
      </trkpt>
      <trkpt lat="45.60917" lon="4.35743">
        <ele>427</ele>
        <time>2017-07-01T18:05:28Z</time>
      </trkpt>
      <trkpt lat="45.6089" lon="4.35628">
        <ele>426</ele>
        <time>2017-07-01T18:07:28Z</time>
      </trkpt>
      <trkpt lat="45.60857" lon="4.35464">
        <ele>432</ele>
        <time>2017-07-01T18:09:28Z</time>
      </trkpt>
      <trkpt lat="45.6086" lon="4.35306">
        <ele>429</ele>
        <time>2017-07-01T18:11:28Z</time>
      </trkpt>
      <trkpt lat="45.608" lon="4.35186">
        <ele>420</ele>
        <time>2017-07-01T18:13:28Z</time>
      </trkpt>
      <trkpt lat="45.60722" lon="4.35319">
        <ele>440</ele>
        <time>2017-07-01T18:15:28Z</time>
      </trkpt>
      <trkpt lat="45.60641" lon="4.35512">
        <ele>460</ele>
        <time>2017-07-01T18:17:28Z</time>
      </trkpt>
      <trkpt lat="45.60602" lon="4.35525">
        <ele>463</ele>
        <time>2017-07-01T18:19:28Z</time>
      </trkpt>
      <trkpt lat="45.60548" lon="4.35477">
        <ele>461</ele>
        <time>2017-07-01T18:21:28Z</time>
      </trkpt>
      <trkpt lat="45.60476" lon="4.35323">
        <ele>463</ele>
        <time>2017-07-01T18:23:28Z</time>
      </trkpt>
      <trkpt lat="45.60386" lon="4.35314">
        <ele>462</ele>
        <time>2017-07-01T18:25:28Z</time>
      </trkpt>
      <trkpt lat="45.60353" lon="4.3543">
        <ele>475</ele>
        <time>2017-07-01T18:27:28Z</time>
      </trkpt>
      <trkpt lat="45.60302" lon="4.35546">
        <ele>483</ele>
        <time>2017-07-01T18:29:28Z</time>
      </trkpt>
      <trkpt lat="45.60314" lon="4.35679">
        <ele>494</ele>
        <time>2017-07-01T18:31:28Z</time>
      </trkpt>
      <trkpt lat="45.60266" lon="4.35894">
        <ele>508</ele>
        <time>2017-07-01T18:33:28Z</time>
      </trkpt>
      <trkpt lat="45.60215" lon="4.36018">
        <ele>516</ele>
        <time>2017-07-01T18:35:28Z</time>
      </trkpt>
      <trkpt lat="45.60131" lon="4.36078">
        <ele>520</ele>
        <time>2017-07-01T18:37:28Z</time>
      </trkpt>
      <trkpt lat="45.60032" lon="4.3604">
        <ele>523</ele>
        <time>2017-07-01T18:39:28Z</time>
      </trkpt>
      <trkpt lat="45.59902" lon="4.36087">
        <ele>532</ele>
        <time>2017-07-01T18:41:28Z</time>
      </trkpt>
      <trkpt lat="45.59773" lon="4.361">
        <ele>539</ele>
        <time>2017-07-01T18:43:28Z</time>
      </trkpt>
      <trkpt lat="45.59707" lon="4.36117">
        <ele>541</ele>
        <time>2017-07-01T18:45:28Z</time>
      </trkpt>
    </trkseg>
  </trk>
</gpx>